createdAt,value
2022-08-24T00:02:02.014Z,17.530001
2022-08-24T00:05:27.058Z,17.5
2022-08-24T00:08:52.295Z,17.48
2022-08-24T00:12:17.544Z,17.48
2022-08-24T00:15:42.789Z,17.469999
2022-08-24T00:19:08.008Z,17.440001
2022-08-24T00:22:33.263Z,17.389999
2022-08-24T00:25:58.500Z,17.370001
2022-08-24T00:29:23.750Z,17.35
2022-08-24T00:32:48.988Z,17.34
2022-08-24T00:36:14.221Z,17.35
2022-08-24T00:39:39.462Z,17.33
2022-08-24T00:43:04.703Z,17.35
2022-08-24T00:46:29.947Z,17.4
2022-08-24T00:49:55.202Z,17.4
2022-08-24T00:53:20.455Z,17.389999
2022-08-24T00:56:45.699Z,17.370001
2022-08-24T01:00:10.904Z,17.360001
2022-08-24T01:03:36.151Z,17.33
2022-08-24T01:07:01.374Z,17.309999
2022-08-24T01:10:26.621Z,17.309999
2022-08-24T01:13:51.831Z,17.32
2022-08-24T01:17:17.079Z,17.35
2022-08-24T01:20:42.340Z,17.34
2022-08-24T01:24:07.626Z,17.309999
2022-08-24T01:27:32.878Z,17.299999
2022-08-24T01:30:58.147Z,17.309999
2022-08-24T01:34:23.361Z,17.309999
2022-08-24T01:37:48.594Z,17.290001
2022-08-24T01:41:13.859Z,17.27
2022-08-24T01:44:39.114Z,17.26
2022-08-24T01:48:04.505Z,17.219999
2022-08-24T01:51:29.591Z,17.190001
2022-08-24T01:54:54.833Z,17.200001
2022-08-24T01:58:20.073Z,17.26
2022-08-24T02:01:45.383Z,17.24
2022-08-24T02:05:10.546Z,17.23
2022-08-24T02:08:35.763Z,17.200001
2022-08-24T02:12:01.041Z,17.16
2022-08-24T02:15:26.298Z,17.15
2022-08-24T02:18:51.553Z,17.16
2022-08-24T02:22:16.785Z,17.129999
2022-08-24T02:25:42.020Z,17.129999
2022-08-24T02:29:07.257Z,17.120001
2022-08-24T02:32:32.471Z,17.110001
2022-08-24T02:35:57.717Z,17.110001
2022-08-24T02:39:22.972Z,17.110001
2022-08-24T02:42:48.196Z,17.139999
2022-08-24T02:46:13.788Z,17.129999
2022-08-24T02:49:38.661Z,17.120001
2022-08-24T02:53:04.004Z,17.129999
2022-08-24T02:56:29.108Z,17.120001
2022-08-24T02:59:54.352Z,17.129999
2022-08-24T03:03:19.591Z,17.129999
2022-08-24T03:06:44.828Z,17.129999
2022-08-24T03:10:10.054Z,17.120001
2022-08-24T03:13:35.288Z,17.15
2022-08-24T03:17:00.540Z,17.17
2022-08-24T03:20:25.772Z,17.17
2022-08-24T03:23:51.007Z,17.16
2022-08-24T03:27:16.244Z,17.15
2022-08-24T03:30:42.030Z,17.120001
2022-08-24T03:34:06.735Z,17.129999
2022-08-24T03:37:31.950Z,17.110001
2022-08-24T03:40:57.224Z,17.09
2022-08-24T03:44:23.254Z,17.07
2022-08-24T03:47:47.699Z,17.040001
2022-08-24T03:51:12.933Z,17.01
2022-08-24T03:54:38.170Z,16.950001
2022-08-24T03:58:03.407Z,16.959999
2022-08-24T04:01:28.730Z,16.99
2022-08-24T04:04:53.864Z,16.98
2022-08-24T04:08:19.106Z,16.959999
2022-08-24T04:11:44.342Z,16.959999
2022-08-24T04:15:09.594Z,16.99
2022-08-24T04:18:34.842Z,17.02
2022-08-24T04:22:00.069Z,17.01
2022-08-24T04:25:25.365Z,17.01
2022-08-24T04:28:50.541Z,16.969999
2022-08-24T04:32:15.781Z,16.940001
2022-08-24T04:35:41.022Z,16.969999
2022-08-24T04:39:06.259Z,17
2022-08-24T04:42:31.481Z,17.02
2022-08-24T04:45:56.797Z,17.040001
2022-08-24T04:49:21.964Z,17.07
2022-08-24T04:52:47.791Z,17.1
2022-08-24T04:56:12.459Z,17.129999
2022-08-24T04:59:37.674Z,17.18
2022-08-24T05:03:03.062Z,17.25
2022-08-24T05:06:28.155Z,17.26
2022-08-24T05:09:53.402Z,17.290001
2022-08-24T05:13:18.624Z,17.32
2022-08-24T05:16:45.624Z,17.379999
2022-08-24T05:20:09.139Z,17.440001
2022-08-24T05:23:34.378Z,17.530001
2022-08-24T05:26:59.608Z,17.620001
2022-08-24T05:30:24.824Z,17.690001
2022-08-24T05:33:50.052Z,17.75
2022-08-24T05:37:15.301Z,17.809999
2022-08-24T05:40:40.535Z,17.9
2022-08-24T05:44:06.621Z,17.950001
2022-08-24T05:47:31.013Z,18.030001
2022-08-24T05:50:56.238Z,18.1
2022-08-24T05:54:21.477Z,18.190001
2022-08-24T05:57:46.689Z,18.27
2022-08-24T06:01:11.922Z,18.370001
2022-08-24T06:04:37.183Z,18.51
2022-08-24T06:08:02.405Z,18.66
2022-08-24T06:11:29.922Z,18.860001
2022-08-24T06:14:52.905Z,19.049999
2022-08-24T06:18:18.194Z,19.27
2022-08-24T06:21:43.385Z,19.5
2022-08-24T06:25:08.616Z,19.77
2022-08-24T06:28:33.827Z,20.01
2022-08-24T06:31:59.129Z,20.209999
2022-08-24T06:35:24.300Z,20.33
2022-08-24T06:38:49.543Z,20.43
2022-08-24T06:42:14.780Z,20.5
2022-08-24T06:45:40.010Z,20.549999
2022-08-24T06:49:05.251Z,20.6
2022-08-24T06:52:30.505Z,20.629999
2022-08-24T06:55:55.736Z,20.639999
2022-08-24T06:59:20.984Z,20.639999
2022-08-24T07:02:46.261Z,20.65
2022-08-24T07:06:11.483Z,20.700001
2022-08-24T07:09:36.711Z,20.719999
2022-08-24T07:13:01.971Z,20.77
2022-08-24T07:16:27.232Z,20.809999
2022-08-24T07:19:52.421Z,20.860001
2022-08-24T07:23:17.674Z,20.879999
2022-08-24T07:26:42.912Z,20.92
2022-08-24T07:30:26.286Z,20.959999
2022-08-24T07:33:33.392Z,21.02
2022-08-24T07:36:58.632Z,21.08
2022-08-24T07:40:23.953Z,21.15
2022-08-24T07:43:49.128Z,21.219999
2022-08-24T07:47:36.831Z,21.299999
2022-08-24T07:50:39.635Z,21.360001
2022-08-24T07:54:04.854Z,21.459999
2022-08-24T07:57:30.100Z,21.549999
2022-08-24T08:00:55.366Z,21.629999
2022-08-24T08:04:20.607Z,21.700001
2022-08-24T08:07:48.762Z,21.76
2022-08-24T08:11:11.071Z,21.84
2022-08-24T08:14:36.284Z,21.91
2022-08-24T08:18:01.527Z,21.969999
2022-08-24T08:21:27.246Z,21.99
2022-08-24T08:24:52.487Z,21.99
2022-08-24T08:28:24.887Z,22.030001
2022-08-24T08:31:42.952Z,22.129999
2022-08-24T08:35:08.166Z,22.219999
2022-08-24T08:38:33.407Z,22.280001
2022-08-24T08:41:58.638Z,22.360001
2022-08-24T08:45:23.894Z,22.450001
2022-08-24T08:48:49.142Z,22.540001
2022-08-24T08:52:14.365Z,22.68
2022-08-24T08:55:39.616Z,22.809999
2022-08-24T08:59:04.860Z,22.870001
2022-08-24T09:02:30.104Z,22.9
2022-08-24T09:09:20.577Z,23.01
2022-08-24T09:12:45.834Z,23.040001
2022-08-24T09:16:11.116Z,23.030001
2022-08-24T09:19:36.341Z,23.09
2022-08-24T09:23:01.594Z,23.190001
2022-08-24T09:26:26.852Z,23.299999
2022-08-24T09:29:52.096Z,23.34
2022-08-24T09:33:17.373Z,23.43
2022-08-24T09:36:42.648Z,23.549999
2022-08-24T09:40:07.969Z,23.690001
2022-08-24T09:43:33.232Z,23.879999
2022-08-24T09:46:58.502Z,24.040001
2022-08-24T09:50:23.745Z,24.219999
2022-08-24T09:53:49.008Z,24.42
2022-08-24T09:57:15.514Z,24.6
2022-08-24T10:00:39.553Z,24.73
2022-08-24T10:04:04.847Z,24.77
2022-08-24T10:07:30.135Z,24.809999
2022-08-24T10:10:55.399Z,24.870001
2022-08-24T10:14:20.698Z,24.940001
2022-08-24T10:17:45.953Z,25.030001
2022-08-24T10:21:11.266Z,25.030001
2022-08-24T10:24:36.607Z,25.16
2022-08-24T10:28:01.901Z,25.360001
2022-08-24T10:31:27.143Z,25.58
2022-08-24T10:34:52.524Z,25.799999
2022-08-24T10:38:17.865Z,25.92
2022-08-24T10:41:43.141Z,25.84
2022-08-24T10:45:08.431Z,25.799999
2022-08-24T10:48:34.626Z,25.629999
2022-08-24T10:51:58.953Z,25.66
2022-08-24T10:55:24.227Z,25.76
2022-08-24T10:58:49.515Z,25.870001
2022-08-24T11:02:14.852Z,25.799999
2022-08-24T11:05:40.055Z,25.85
2022-08-24T11:09:05.353Z,25.940001
2022-08-24T11:12:30.610Z,26.01
2022-08-24T11:15:55.864Z,26.049999
2022-08-24T11:19:21.157Z,25.99
2022-08-24T11:22:46.415Z,25.99
2022-08-24T11:26:11.731Z,26.09
2022-08-24T11:29:37.087Z,26.190001
2022-08-24T11:33:02.332Z,26.299999
2022-08-24T11:36:27.571Z,26.42
2022-08-24T11:39:52.915Z,26.42
2022-08-24T11:43:18.180Z,26.299999
2022-08-24T11:46:43.570Z,26.129999
2022-08-24T11:50:08.783Z,26.07
2022-08-24T11:53:34.070Z,25.940001
2022-08-24T11:56:59.348Z,25.799999
2022-08-24T12:00:24.615Z,25.889999
2022-08-24T12:03:52.569Z,25.93
2022-08-24T12:07:15.160Z,25.870001
2022-08-24T12:10:40.467Z,25.950001
2022-08-24T12:14:06.152Z,26.040001
2022-08-24T12:17:31.440Z,26.059999
2022-08-24T12:20:56.829Z,25.969999
2022-08-24T12:24:22.119Z,25.9
2022-08-24T12:27:47.392Z,25.9
2022-08-24T12:31:12.742Z,26.02
2022-08-24T12:34:38.139Z,26.15
2022-08-24T12:38:06.446Z,26.26
2022-08-24T12:41:31.743Z,26.43
2022-08-24T12:44:57.035Z,26.559999
2022-08-24T12:48:22.363Z,26.58
2022-08-24T12:51:47.755Z,26.370001
2022-08-24T12:55:14.125Z,26.35
2022-08-24T12:58:42.726Z,26.42
2022-08-24T13:02:07.989Z,26.49
2022-08-24T13:05:33.204Z,26.530001
2022-08-24T13:08:58.516Z,26.6
2022-08-24T13:12:24.381Z,26.68
2022-08-24T13:15:49.101Z,26.75
2022-08-24T13:19:14.369Z,26.76
2022-08-24T13:22:39.619Z,26.75
2022-08-24T13:26:04.885Z,26.74
2022-08-24T13:29:30.199Z,26.620001
2022-08-24T13:32:55.491Z,26.440001
2022-08-24T13:36:20.727Z,26.27
2022-08-24T13:39:46.088Z,26.26
2022-08-24T13:43:11.364Z,26.299999
2022-08-24T13:46:36.696Z,26.34
2022-08-24T13:50:01.980Z,26.4
2022-08-24T13:53:27.214Z,26.469999
2022-08-24T13:56:52.543Z,26.52
2022-08-24T14:00:17.853Z,26.540001
2022-08-24T14:03:43.104Z,26.559999
2022-08-24T14:07:08.361Z,26.610001
2022-08-24T14:10:33.623Z,26.65
2022-08-24T14:13:58.914Z,26.700001
2022-08-24T14:17:24.219Z,26.629999
2022-08-24T14:20:49.599Z,26.540001
2022-08-24T14:24:14.896Z,26.360001
2022-08-24T14:27:40.174Z,26.27
2022-08-24T15:04:32.072Z,24.23
2022-08-24T15:07:47.201Z,25.18
2022-08-24T15:11:12.567Z,25.42
2022-08-24T15:14:37.827Z,25.610001
2022-08-24T15:18:06.552Z,25.790001
2022-08-24T15:21:28.345Z,25.91
2022-08-24T15:24:53.588Z,26.02
2022-08-24T15:28:18.830Z,26.08
2022-08-24T15:31:44.085Z,26.120001
2022-08-24T15:35:09.399Z,26.139999
2022-08-24T15:38:34.675Z,26.16
2022-08-24T15:41:59.966Z,26.120001
2022-08-24T15:45:25.208Z,26.09
2022-08-24T15:48:50.452Z,26.1
2022-08-24T15:52:15.703Z,26.110001
2022-08-24T15:55:40.973Z,26.1
2022-08-24T15:59:06.247Z,26.1
2022-08-24T16:02:31.635Z,26.08
2022-08-24T16:05:56.780Z,26.09
2022-08-24T16:09:22.033Z,26.040001
2022-08-24T16:12:47.312Z,26.02
2022-08-24T16:16:12.611Z,26
2022-08-24T16:19:37.817Z,25.969999
2022-08-24T16:23:03.105Z,25.93
2022-08-24T16:26:28.368Z,25.9
2022-08-24T16:29:53.883Z,25.9
2022-08-24T16:33:18.862Z,25.889999
2022-08-24T16:36:44.126Z,25.889999
2022-08-24T16:40:09.488Z,25.84
2022-08-24T16:43:34.726Z,25.809999
2022-08-24T16:46:59.984Z,25.790001
2022-08-24T16:50:27.356Z,25.73
2022-08-24T16:53:50.489Z,25.700001
2022-08-24T16:57:15.746Z,25.66
2022-08-24T17:00:40.987Z,25.620001
2022-08-24T17:04:06.238Z,25.559999
2022-08-24T17:07:31.475Z,25.5
2022-08-24T17:10:56.724Z,25.41
2022-08-24T17:14:24.702Z,25.32
2022-08-24T17:17:49.939Z,25.23
2022-08-24T17:21:15.183Z,25.120001
2022-08-24T17:24:40.471Z,25.040001
2022-08-24T17:28:05.882Z,24.969999
2022-08-24T17:31:30.986Z,24.889999
2022-08-24T17:34:56.190Z,24.83
2022-08-24T17:38:21.410Z,24.780001
2022-08-24T17:41:46.671Z,24.74
2022-08-24T17:45:12.072Z,24.690001
2022-08-24T17:48:37.493Z,24.66
2022-08-24T17:52:02.825Z,24.6
2022-08-24T17:55:28.110Z,24.549999
2022-08-24T17:58:53.452Z,24.459999
2022-08-24T18:02:18.771Z,24.389999
2022-08-24T18:05:44.119Z,24.280001
2022-08-24T18:09:09.584Z,24.190001
2022-08-24T18:12:34.844Z,24.110001
2022-08-24T18:16:00.249Z,24.059999
2022-08-24T18:19:25.479Z,24
2022-08-24T18:22:53.931Z,23.93
2022-08-24T18:26:16.019Z,23.83
2022-08-24T18:29:41.362Z,23.77
2022-08-24T18:33:06.649Z,23.709999
2022-08-24T18:36:31.943Z,23.67
2022-08-24T18:39:57.309Z,23.610001
2022-08-24T18:43:22.635Z,23.540001
2022-08-24T18:46:47.916Z,23.469999
2022-08-24T18:50:13.190Z,23.41
2022-08-24T18:53:40.098Z,23.360001
2022-08-24T18:57:05.405Z,23.299999
2022-08-24T19:00:30.674Z,23.26
2022-08-24T19:03:55.965Z,23.219999
2022-08-24T19:07:21.244Z,23.17
2022-08-24T19:10:46.576Z,23.120001
2022-08-24T19:14:11.828Z,23.059999
2022-08-24T19:17:37.104Z,23
2022-08-24T19:21:02.381Z,22.959999
2022-08-24T19:24:27.663Z,22.879999
2022-08-24T19:27:53.851Z,22.82
2022-08-24T19:31:18.421Z,22.74
2022-08-24T19:34:43.669Z,22.68
2022-08-24T19:38:08.957Z,22.639999
2022-08-24T19:41:35.306Z,22.610001
2022-08-24T19:44:59.469Z,22.59
2022-08-24T19:48:24.811Z,22.57
2022-08-24T19:51:50.095Z,22.57
2022-08-24T19:55:15.350Z,22.559999
2022-08-24T19:58:40.641Z,22.549999
2022-08-24T20:02:05.907Z,22.52
2022-08-24T20:05:31.128Z,22.5
2022-08-24T20:08:56.371Z,22.469999
2022-08-24T20:12:21.616Z,22.379999
2022-08-24T20:15:46.846Z,22.309999
2022-08-24T20:19:12.118Z,22.25
2022-08-24T20:22:37.385Z,22.23
2022-08-24T20:26:02.642Z,22.17
2022-08-24T20:29:27.913Z,22.110001
2022-08-24T20:32:53.171Z,22.049999
2022-08-24T20:36:18.464Z,22.01
2022-08-24T20:39:43.775Z,21.959999
2022-08-24T20:43:08.983Z,21.84
2022-08-24T20:46:34.308Z,21.75
2022-08-24T20:49:59.495Z,21.639999
2022-08-24T20:53:24.776Z,21.59
2022-08-24T20:56:50.021Z,21.58
2022-08-24T21:00:15.322Z,21.57
2022-08-24T21:03:40.634Z,21.57
2022-08-24T21:07:05.834Z,21.6
2022-08-24T21:10:31.129Z,21.620001
2022-08-24T21:13:56.415Z,21.66
2022-08-24T21:17:21.663Z,21.67
2022-08-24T21:20:59.926Z,21.66
2022-08-24T21:24:12.177Z,21.66
2022-08-24T21:27:37.421Z,21.65
2022-08-24T21:31:06.027Z,21.629999
2022-08-24T21:34:28.105Z,21.610001
2022-08-24T21:37:53.157Z,21.57
2022-08-24T21:41:18.385Z,21.540001
2022-08-24T21:44:43.641Z,21.530001
2022-08-24T21:48:08.894Z,21.51
2022-08-24T21:51:34.148Z,21.49
2022-08-24T21:54:59.411Z,21.459999
2022-08-24T21:58:24.665Z,21.459999
2022-08-24T22:01:49.995Z,21.43
2022-08-24T22:05:15.182Z,21.360001
2022-08-24T22:08:40.412Z,21.299999
2022-08-24T22:12:05.677Z,21.280001
2022-08-24T22:15:30.917Z,21.290001
2022-08-24T22:18:56.177Z,21.26
2022-08-24T22:22:21.442Z,21.209999
2022-08-24T22:25:46.660Z,21.15
2022-08-24T22:29:11.893Z,21.1
2022-08-24T22:32:37.137Z,21.040001
2022-08-24T22:36:02.347Z,20.950001
2022-08-24T22:39:27.587Z,20.870001
2022-08-24T22:42:52.861Z,20.809999
2022-08-24T22:46:18.150Z,20.75
2022-08-24T22:49:43.330Z,20.639999
2022-08-24T22:53:08.553Z,20.559999
2022-08-24T22:56:33.785Z,20.469999
2022-08-24T22:59:59.021Z,20.4
2022-08-24T23:03:24.265Z,20.34
2022-08-24T23:06:49.518Z,20.34
2022-08-24T23:10:14.770Z,20.33
2022-08-24T23:13:40.007Z,20.309999
2022-08-24T23:17:05.255Z,20.290001
2022-08-24T23:20:30.533Z,20.25
2022-08-24T23:23:55.773Z,20.24
2022-08-24T23:27:20.999Z,20.190001
2022-08-24T23:30:46.296Z,20.139999
2022-08-24T23:34:11.478Z,20.09
2022-08-24T23:37:36.720Z,20.030001
2022-08-24T23:41:01.971Z,19.969999
2022-08-24T23:44:27.186Z,19.92
2022-08-24T23:47:52.428Z,19.870001
2022-08-24T23:51:17.683Z,19.860001
2022-08-24T23:54:42.904Z,19.870001
2022-08-24T23:58:08.131Z,19.860001
